createdAt,value
2023-03-05T00:02:40.059Z,99.90
2023-03-05T00:05:25.484Z,99.90
2023-03-05T00:08:11.205Z,99.70
2023-03-05T00:10:57.039Z,99.60
2023-03-05T00:13:42.476Z,99.10
2023-03-05T00:16:29.626Z,99.20
2023-03-05T00:19:15.005Z,99.40
2023-03-05T00:22:00.518Z,99.40
2023-03-05T00:24:46.216Z,99.40
2023-03-05T00:27:31.603Z,99.30
2023-03-05T00:30:17.081Z,99.30
2023-03-05T00:33:04.029Z,99.20
2023-03-05T00:35:50.158Z,99.20
2023-03-05T00:38:35.744Z,99.30
2023-03-05T00:41:21.090Z,99.60
2023-03-05T00:44:06.770Z,99.80
2023-03-05T00:46:52.826Z,99.60
2023-03-05T00:49:39.538Z,99.30
2023-03-05T00:52:25.065Z,99.30
2023-03-05T00:55:10.736Z,99.40
2023-03-05T00:57:56.025Z,99.50
2023-03-05T01:00:41.528Z,99.70
2023-03-05T01:03:27.577Z,99.60
2023-03-05T01:06:17.077Z,99.40
2023-03-05T01:09:02.463Z,99.30
2023-03-05T01:11:47.796Z,99.30
2023-03-05T01:14:34.688Z,99.60
2023-03-05T01:17:20.368Z,99.90
2023-03-05T01:20:06.361Z,99.90
2023-03-05T01:22:53.978Z,99.90
2023-03-05T01:25:39.889Z,99.90
2023-03-05T01:28:28.571Z,99.90
2023-03-05T01:31:13.911Z,99.90
2023-03-05T01:34:00.189Z,99.90
2023-03-05T01:36:45.825Z,99.90
2023-03-05T01:39:32.486Z,99.90
2023-03-05T01:42:19.387Z,99.90
2023-03-05T01:45:06.162Z,99.90
2023-03-05T01:47:51.747Z,99.90
2023-03-05T01:50:37.514Z,99.90
2023-03-05T01:53:23.086Z,99.90
2023-03-05T01:56:09.886Z,99.90
2023-03-05T01:59:03.134Z,99.90
2023-03-05T02:01:51.916Z,99.90
2023-03-05T02:04:39.796Z,99.90
2023-03-05T02:07:25.443Z,99.90
2023-03-05T02:10:17.985Z,99.90
2023-03-05T02:13:06.534Z,99.90
2023-03-05T02:15:53.158Z,99.90
2023-03-05T02:18:38.724Z,99.90
2023-03-05T02:21:29.444Z,99.90
2023-03-05T02:24:15.250Z,99.90
2023-03-05T02:27:01.028Z,99.90
2023-03-05T02:29:46.647Z,99.90
2023-03-05T02:32:32.303Z,99.90
2023-03-05T02:35:17.778Z,99.90
2023-03-05T02:38:04.820Z,99.90
2023-03-05T02:40:50.871Z,99.90
2023-03-05T02:43:37.621Z,99.90
2023-03-05T02:46:23.107Z,99.90
2023-03-05T02:49:08.603Z,99.90
2023-03-05T02:51:53.933Z,99.90
2023-03-05T02:54:41.022Z,99.90
2023-03-05T02:57:26.535Z,99.90
2023-03-05T03:00:13.972Z,99.90
2023-03-05T03:02:59.731Z,99.90
2023-03-05T03:05:46.017Z,99.90
2023-03-05T03:08:31.565Z,99.90
2023-03-05T03:11:18.704Z,99.90
2023-03-05T03:14:03.903Z,99.90
2023-03-05T03:16:49.311Z,99.90
2023-03-05T03:19:35.496Z,99.90
2023-03-05T03:22:20.739Z,99.90
2023-03-05T03:25:07.001Z,99.90
2023-03-05T03:27:53.538Z,99.90
2023-03-05T03:30:39.096Z,99.90
2023-03-05T03:33:24.500Z,99.90
2023-03-05T03:36:10.083Z,99.90
2023-03-05T03:38:55.684Z,99.90
2023-03-05T03:41:41.582Z,99.90
2023-03-05T03:44:28.455Z,99.90
2023-03-05T03:47:13.994Z,99.90
2023-03-05T03:49:59.532Z,99.90
2023-03-05T03:52:44.784Z,99.90
2023-03-05T03:55:29.933Z,99.90
2023-03-05T03:58:15.496Z,99.90
2023-03-05T04:01:02.401Z,99.90
2023-03-05T04:03:47.970Z,99.90
2023-03-05T04:06:33.966Z,99.90
2023-03-05T04:09:19.459Z,99.90
2023-03-05T04:12:05.048Z,99.90
2023-03-05T04:14:50.520Z,99.90
2023-03-05T04:17:37.636Z,99.90
2023-03-05T04:20:23.043Z,99.90
2023-03-05T04:23:08.407Z,99.90
2023-03-05T04:25:54.051Z,99.90
2023-03-05T04:28:39.732Z,99.90
2023-03-05T04:31:25.385Z,99.90
2023-03-05T04:34:12.332Z,99.90
2023-03-05T04:36:57.713Z,99.90
2023-03-05T04:39:43.752Z,99.90
2023-03-05T04:42:29.343Z,99.90
2023-03-05T04:45:17.149Z,99.90
2023-03-05T04:48:02.697Z,99.90
2023-03-05T04:50:49.750Z,99.90
2023-03-05T04:53:36.075Z,99.90
2023-03-05T04:56:21.414Z,99.90
2023-03-05T04:59:06.656Z,99.90
2023-03-05T05:01:52.048Z,99.90
2023-03-05T05:04:37.968Z,99.90
2023-03-05T05:07:24.630Z,99.90
2023-03-05T05:10:10.821Z,99.90
2023-03-05T05:12:56.422Z,99.90
2023-03-05T05:15:41.804Z,99.90
2023-03-05T05:18:27.256Z,99.90
2023-03-05T05:21:13.584Z,99.90
2023-03-05T05:24:00.429Z,99.90
2023-03-05T05:26:46.131Z,99.90
2023-03-05T05:29:31.637Z,99.90
2023-03-05T05:32:17.814Z,99.90
2023-03-05T05:35:03.879Z,99.90
2023-03-05T05:37:49.826Z,99.90
2023-03-05T05:40:36.686Z,99.90
2023-03-05T05:43:22.116Z,99.90
2023-03-05T05:46:09.140Z,99.90
2023-03-05T05:48:54.882Z,99.90
2023-03-05T05:51:40.252Z,99.90
2023-03-05T05:54:25.514Z,99.90
2023-03-05T05:57:12.514Z,99.90
2023-03-05T05:59:58.104Z,99.90
2023-03-05T06:02:43.753Z,99.90
2023-03-05T06:05:29.188Z,99.90
2023-03-05T06:08:14.633Z,99.90
2023-03-05T06:11:00.228Z,99.90
2023-03-05T06:13:47.308Z,99.90
2023-03-05T06:16:32.769Z,99.90
2023-03-05T06:19:18.350Z,99.90
2023-03-05T06:22:03.850Z,99.90
2023-03-05T06:24:49.397Z,99.90
2023-03-05T06:27:35.702Z,99.90
2023-03-05T06:30:22.578Z,99.90
2023-03-05T06:33:08.062Z,99.90
2023-03-05T06:35:53.484Z,99.90
2023-03-05T06:38:39.618Z,99.90
2023-03-05T06:41:26.229Z,99.90
2023-03-05T06:44:11.929Z,99.90
2023-03-05T06:46:58.946Z,99.90
2023-03-05T06:49:44.466Z,99.90
2023-03-05T06:52:29.921Z,99.90
2023-03-05T06:55:15.742Z,99.90
2023-03-05T06:58:01.535Z,99.90
2023-03-05T07:00:47.477Z,99.90
2023-03-05T07:03:35.205Z,99.90
2023-03-05T07:06:21.532Z,99.90
2023-03-05T07:09:07.664Z,99.90
2023-03-05T07:11:53.360Z,99.90
2023-03-05T07:14:38.872Z,99.90
2023-03-05T07:17:24.384Z,99.90
2023-03-05T07:20:12.109Z,99.90
2023-03-05T07:22:57.507Z,99.90
2023-03-05T07:25:43.228Z,99.90
2023-03-05T07:28:28.850Z,99.90
2023-03-05T07:31:15.297Z,99.90
2023-03-05T07:34:01.926Z,99.90
2023-03-05T07:36:51.235Z,99.90
2023-03-05T07:39:37.121Z,99.90
2023-03-05T07:42:22.562Z,99.90
2023-03-05T07:45:15.198Z,99.90
2023-03-05T07:48:00.713Z,99.90
2023-03-05T07:50:46.452Z,99.90
2023-03-05T07:53:33.370Z,99.90
2023-03-05T07:56:23.409Z,99.90
2023-03-05T07:59:10.712Z,99.90
2023-03-05T08:01:56.265Z,99.90
2023-03-05T08:04:43.303Z,99.90
2023-03-05T08:07:29.123Z,99.90
2023-03-05T08:10:16.270Z,99.90
2023-03-05T08:13:01.586Z,99.90
2023-03-05T08:15:47.285Z,99.90
2023-03-05T08:18:33.406Z,99.90
2023-03-05T08:21:19.581Z,99.90
2023-03-05T08:24:06.242Z,99.90
2023-03-05T08:26:53.096Z,99.90
2023-03-05T08:29:38.961Z,99.90
2023-03-05T08:32:24.615Z,99.90
2023-03-05T08:35:10.245Z,99.90
2023-03-05T08:37:55.628Z,99.90
2023-03-05T08:40:40.861Z,99.90
2023-03-05T08:43:27.768Z,99.90
2023-03-05T08:46:14.278Z,99.90
2023-03-05T08:48:59.963Z,99.90
2023-03-05T08:51:45.574Z,99.90
2023-03-05T08:54:30.965Z,99.90
2023-03-05T08:57:16.757Z,99.90
2023-03-05T09:00:04.406Z,99.90
2023-03-05T09:02:49.713Z,99.90
2023-03-05T09:05:36.775Z,99.70
2023-03-05T09:08:23.674Z,99.60
2023-03-05T09:11:09.675Z,99.70
2023-03-05T09:13:54.944Z,99.70
2023-03-05T09:16:41.877Z,99.80
2023-03-05T09:19:27.632Z,99.40
2023-03-05T09:22:13.571Z,99.20
2023-03-05T09:24:59.609Z,99.30
2023-03-05T09:27:45.730Z,99.60
2023-03-05T09:30:31.191Z,99.00
2023-03-05T09:33:18.163Z,98.30
2023-03-05T09:36:04.872Z,98.10
2023-03-05T09:38:50.950Z,97.80
2023-03-05T09:41:45.791Z,97.40
2023-03-05T09:44:35.984Z,97.30
2023-03-05T09:47:34.819Z,97.10
2023-03-05T09:50:32.825Z,96.60
2023-03-05T09:53:23.432Z,96.00
2023-03-05T09:56:10.989Z,95.70
2023-03-05T09:58:59.544Z,95.30
2023-03-05T10:01:45.833Z,95.00
2023-03-05T10:04:38.726Z,94.90
2023-03-05T10:07:27.433Z,94.90
2023-03-05T10:10:14.377Z,94.80
2023-03-05T10:13:01.276Z,94.70
2023-03-05T10:15:52.086Z,94.90
2023-03-05T10:18:40.812Z,95.40
2023-03-05T10:21:30.703Z,94.80
2023-03-05T10:24:19.391Z,94.80
2023-03-05T10:27:08.629Z,94.90
2023-03-05T10:30:01.365Z,95.20
2023-03-05T10:32:50.674Z,95.10
2023-03-05T10:35:45.166Z,94.80
2023-03-05T10:38:48.501Z,94.10
2023-03-05T10:41:40.486Z,94.10
2023-03-05T10:44:32.041Z,94.10
2023-03-05T10:47:21.954Z,94.10
2023-03-05T10:50:15.377Z,94.50
2023-03-05T10:53:06.885Z,94.80
2023-03-05T10:55:56.211Z,94.90
2023-03-05T10:58:43.317Z,94.60
2023-03-05T11:01:29.498Z,93.00
2023-03-05T11:04:26.231Z,92.80
2023-03-05T11:07:30.558Z,93.10
2023-03-05T11:10:17.610Z,92.50
2023-03-05T11:13:18.983Z,92.60
2023-03-05T11:16:07.290Z,92.70
2023-03-05T11:19:15.351Z,92.60
2023-03-05T11:22:14.231Z,92.90
2023-03-05T11:25:04.562Z,92.10
2023-03-05T11:27:53.015Z,91.60
2023-03-05T11:30:40.509Z,90.70
2023-03-05T11:33:27.799Z,90.30
2023-03-05T11:36:24.790Z,90.10
2023-03-05T11:39:11.849Z,90.60
2023-03-05T11:41:58.870Z,88.70
2023-03-05T11:44:46.737Z,89.60
2023-03-05T11:47:36.384Z,87.70
2023-03-05T11:50:24.817Z,85.80
2023-03-05T11:53:13.109Z,85.70
2023-03-05T11:55:59.993Z,86.60
2023-03-05T11:58:48.490Z,85.80
2023-03-05T12:01:35.897Z,87.50
2023-03-05T12:04:21.471Z,88.80
2023-03-05T12:07:12.375Z,89.60
2023-03-05T12:09:57.718Z,90.60
2023-03-05T12:12:47.140Z,90.80
2023-03-05T12:15:37.893Z,91.10
2023-03-05T12:18:31.235Z,90.80
2023-03-05T12:21:21.587Z,90.50
2023-03-05T12:24:21.914Z,88.60
2023-03-05T12:27:32.176Z,89.90
2023-03-05T12:30:54.244Z,87.40
2023-03-05T12:35:26.958Z,84.40
2023-03-05T12:38:28.164Z,82.00
2023-03-05T12:41:40.846Z,80.50
2023-03-05T12:44:28.380Z,79.60
2023-03-05T12:47:19.482Z,79.60
2023-03-05T12:50:05.307Z,80.90
2023-03-05T12:52:54.889Z,81.10
2023-03-05T12:55:49.467Z,81.00
2023-03-05T12:58:37.801Z,82.20
2023-03-05T13:01:39.878Z,82.10
2023-03-05T13:04:26.502Z,82.30
2023-03-05T13:07:14.895Z,83.20
2023-03-05T13:10:01.991Z,81.80
2023-03-05T13:12:50.068Z,82.10
2023-03-05T13:15:36.033Z,83.90
2023-03-05T13:18:22.552Z,84.30
2023-03-05T13:21:09.012Z,84.60
2023-03-05T13:23:58.438Z,83.10
2023-03-05T13:26:45.964Z,83.90
2023-03-05T13:29:31.763Z,86.30
2023-03-05T13:32:22.903Z,84.50
2023-03-05T13:35:12.472Z,84.70
2023-03-05T13:37:58.083Z,85.50
2023-03-05T13:40:44.076Z,84.70
2023-03-05T13:43:31.274Z,84.90
2023-03-05T13:46:27.456Z,84.20
2023-03-05T13:49:21.038Z,84.50
2023-03-05T13:52:06.605Z,83.80
2023-03-05T13:54:52.102Z,84.70
2023-03-05T13:57:38.955Z,84.30
2023-03-05T14:00:33.546Z,84.20
2023-03-05T14:03:21.978Z,84.00
2023-03-05T14:06:09.601Z,83.10
2023-03-05T14:08:59.460Z,84.00
2023-03-05T14:11:52.102Z,85.00
2023-03-05T14:14:38.298Z,84.70
2023-03-05T14:17:32.590Z,84.80
2023-03-05T14:20:23.362Z,86.40
2023-03-05T14:23:26.732Z,87.10
2023-03-05T14:26:21.320Z,87.30
2023-03-05T14:29:14.261Z,87.30
2023-03-05T14:32:01.660Z,87.80
2023-03-05T14:34:51.133Z,88.70
2023-03-05T14:37:37.774Z,88.80
2023-03-05T14:40:27.417Z,88.80
2023-03-05T14:43:13.313Z,89.30
2023-03-05T14:45:59.086Z,90.30
2023-03-05T14:48:44.694Z,90.30
2023-03-05T14:51:32.775Z,90.30
2023-03-05T14:54:19.483Z,90.40
2023-03-05T14:57:05.640Z,90.50
2023-03-05T14:59:51.740Z,90.70
2023-03-05T15:02:37.360Z,91.00
2023-03-05T15:05:22.909Z,91.00
2023-03-05T15:08:13.704Z,91.20
2023-03-05T15:11:00.157Z,91.20
2023-03-05T15:13:45.802Z,91.60
2023-03-05T15:16:32.229Z,91.50
2023-03-05T15:19:20.963Z,91.60
2023-03-05T15:22:06.804Z,91.20
2023-03-05T15:24:54.165Z,91.50
2023-03-05T15:27:40.203Z,91.60
2023-03-05T15:30:28.404Z,91.50
2023-03-05T15:33:15.565Z,91.90
2023-03-05T15:36:01.709Z,91.40
2023-03-05T15:38:48.118Z,91.80
2023-03-05T15:41:35.269Z,92.70
2023-03-05T15:44:21.288Z,93.50
2023-03-05T15:47:07.004Z,93.90
2023-03-05T15:49:52.761Z,94.00
2023-03-05T15:52:38.817Z,94.30
2023-03-05T15:55:24.249Z,94.30
2023-03-05T15:58:13.215Z,94.50
2023-03-05T16:00:59.678Z,94.90
2023-03-05T16:03:45.966Z,95.00
2023-03-05T16:06:32.133Z,95.00
2023-03-05T16:09:20.732Z,95.10
2023-03-05T16:12:11.639Z,95.50
2023-03-05T16:14:58.962Z,95.60
2023-03-05T16:17:47.683Z,96.00
2023-03-05T16:20:36.373Z,96.40
2023-03-05T16:23:22.552Z,97.00
2023-03-05T16:26:09.739Z,97.00
2023-03-05T16:28:55.762Z,97.30
2023-03-05T16:31:43.215Z,97.50
2023-03-05T16:34:29.142Z,97.90
2023-03-05T16:37:18.307Z,97.60
2023-03-05T16:40:04.189Z,97.60
2023-03-05T16:42:49.831Z,97.30
2023-03-05T16:45:35.430Z,97.10
2023-03-05T16:48:22.855Z,96.70
2023-03-05T16:51:09.184Z,96.50
2023-03-05T16:53:55.845Z,96.30
2023-03-05T16:56:41.714Z,95.90
2023-03-05T16:59:28.054Z,95.90
2023-03-05T17:02:15.345Z,95.70
2023-03-05T17:05:02.612Z,95.60
2023-03-05T17:07:48.324Z,95.80
2023-03-05T17:10:34.203Z,95.50
2023-03-05T17:13:19.665Z,95.40
2023-03-05T17:16:07.037Z,95.40
2023-03-05T17:18:53.100Z,95.40
2023-03-05T17:21:42.486Z,95.50
2023-03-05T17:24:28.801Z,95.40
2023-03-05T17:27:18.605Z,95.40
2023-03-05T17:30:04.500Z,95.40
2023-03-05T17:32:52.764Z,95.50
2023-03-05T17:35:39.181Z,95.60
2023-03-05T17:38:26.783Z,95.70
2023-03-05T17:41:12.153Z,96.20
2023-03-05T17:43:57.559Z,96.20
2023-03-05T17:46:43.159Z,96.40
2023-03-05T17:49:29.067Z,96.60
2023-03-05T17:52:14.890Z,96.50
2023-03-05T17:55:02.362Z,96.40
2023-03-05T17:57:47.970Z,96.50
2023-03-05T18:00:35.161Z,96.50
2023-03-05T18:03:20.553Z,96.30
2023-03-05T18:06:06.365Z,96.60
2023-03-05T18:08:52.614Z,96.70
2023-03-05T18:11:39.930Z,96.70
2023-03-05T18:14:25.648Z,96.70
2023-03-05T18:17:11.166Z,96.60
2023-03-05T18:19:57.248Z,96.60
2023-03-05T18:22:42.601Z,96.70
2023-03-05T18:25:31.830Z,96.60
2023-03-05T18:28:20.360Z,96.60
2023-03-05T18:31:06.090Z,96.80
2023-03-05T18:33:51.783Z,96.90
2023-03-05T18:36:37.354Z,96.70
2023-03-05T18:39:23.153Z,96.30
2023-03-05T18:42:11.455Z,96.40
2023-03-05T18:44:59.125Z,96.40
2023-03-05T18:47:45.138Z,96.50
2023-03-05T18:50:31.089Z,96.60
2023-03-05T18:53:17.318Z,96.70
2023-03-05T18:56:03.291Z,96.80
2023-03-05T18:58:48.927Z,96.90
2023-03-05T19:01:36.362Z,96.90
2023-03-05T19:04:22.550Z,96.80
2023-03-05T19:07:08.550Z,96.50
2023-03-05T19:09:59.426Z,96.60
2023-03-05T19:12:49.678Z,96.60
2023-03-05T19:15:35.549Z,96.50
2023-03-05T19:18:23.692Z,96.60
2023-03-05T19:21:09.456Z,96.80
2023-03-05T19:23:55.347Z,96.80
2023-03-05T19:26:41.365Z,96.70
2023-03-05T19:29:27.827Z,96.80
2023-03-05T19:32:14.714Z,96.80
2023-03-05T19:35:02.036Z,96.90
2023-03-05T19:37:47.468Z,97.00
2023-03-05T19:40:33.202Z,97.20
2023-03-05T19:43:19.349Z,97.60
2023-03-05T19:46:06.440Z,97.60
2023-03-05T19:48:51.899Z,97.70
2023-03-05T19:51:40.315Z,97.50
2023-03-05T19:54:25.994Z,97.40
2023-03-05T19:57:11.513Z,97.40
2023-03-05T19:59:57.228Z,97.80
2023-03-05T20:02:42.721Z,97.80
2023-03-05T20:05:28.276Z,97.40
2023-03-05T20:08:16.277Z,97.60
2023-03-05T20:11:02.136Z,97.80
2023-03-05T20:13:54.045Z,97.80
2023-03-05T20:16:40.046Z,97.50
2023-03-05T20:19:26.358Z,97.60
2023-03-05T20:22:12.321Z,97.80
2023-03-05T20:24:59.604Z,97.80
2023-03-05T20:27:45.383Z,98.20
2023-03-05T20:30:31.142Z,98.00
2023-03-05T20:33:17.916Z,97.90
2023-03-05T20:36:03.663Z,97.80
2023-03-05T20:38:49.200Z,97.80
2023-03-05T20:41:37.655Z,97.70
2023-03-05T20:44:23.001Z,97.60
2023-03-05T20:47:32.232Z,97.70
2023-03-05T20:50:19.447Z,97.90
2023-03-05T20:53:04.989Z,98.10
2023-03-05T20:55:50.639Z,98.10
2023-03-05T20:58:37.743Z,98.00
2023-03-05T21:01:23.258Z,98.00
2023-03-05T21:04:08.844Z,98.20
2023-03-05T21:06:54.493Z,98.10
2023-03-05T21:09:40.181Z,98.20
2023-03-05T21:12:25.848Z,98.20
2023-03-05T21:15:14.163Z,98.30
2023-03-05T21:18:00.047Z,98.30
2023-03-05T21:20:45.451Z,98.20
2023-03-05T21:23:31.231Z,98.30
2023-03-05T21:26:17.106Z,98.60
2023-03-05T21:29:02.451Z,98.60
2023-03-05T21:31:49.574Z,99.00
2023-03-05T21:34:35.246Z,98.90
2023-03-05T21:37:20.671Z,99.00
2023-03-05T21:40:06.499Z,99.20
2023-03-05T21:42:52.960Z,99.20
2023-03-05T21:45:39.562Z,99.20
2023-03-05T21:48:26.651Z,99.30
2023-03-05T21:51:13.723Z,99.30
2023-03-05T21:54:02.254Z,99.70
2023-03-05T21:56:48.040Z,99.90
2023-03-05T21:59:33.644Z,99.80
2023-03-05T22:02:20.013Z,99.90
2023-03-05T22:05:09.338Z,99.90
2023-03-05T22:07:54.644Z,99.90
2023-03-05T22:10:40.701Z,99.90
2023-03-05T22:13:26.482Z,99.90
2023-03-05T22:16:19.856Z,99.90
2023-03-05T22:19:06.009Z,99.90
2023-03-05T22:21:53.272Z,99.90
2023-03-05T22:24:39.297Z,99.90
2023-03-05T22:27:25.048Z,99.90
2023-03-05T22:30:12.218Z,99.90
2023-03-05T22:32:58.002Z,99.90
2023-03-05T22:35:43.774Z,99.90
2023-03-05T22:38:30.745Z,99.90
2023-03-05T22:41:17.353Z,99.90
2023-03-05T22:44:03.186Z,99.90
2023-03-05T22:46:50.574Z,99.90
2023-03-05T22:49:36.229Z,99.90
2023-03-05T22:52:21.729Z,99.90
2023-03-05T22:55:11.164Z,99.90
2023-03-05T22:57:56.994Z,99.90
2023-03-05T23:00:42.859Z,99.90
2023-03-05T23:03:28.340Z,99.90
2023-03-05T23:06:13.924Z,99.90
2023-03-05T23:09:00.134Z,99.90
2023-03-05T23:11:47.392Z,99.90
2023-03-05T23:14:32.591Z,99.90
2023-03-05T23:17:18.254Z,99.90
2023-03-05T23:20:05.106Z,99.90
2023-03-05T23:22:53.319Z,99.90
2023-03-05T23:25:39.084Z,99.90
2023-03-05T23:28:26.062Z,99.90
2023-03-05T23:31:11.488Z,99.90
2023-03-05T23:33:57.395Z,99.90
2023-03-05T23:36:42.636Z,99.90
2023-03-05T23:39:28.232Z,99.90
2023-03-05T23:42:13.934Z,99.90
2023-03-05T23:45:01.382Z,99.90
2023-03-05T23:47:48.307Z,99.90
2023-03-05T23:50:35.060Z,99.90
2023-03-05T23:53:21.275Z,99.90
2023-03-05T23:56:10.207Z,99.90
2023-03-05T23:59:00.462Z,99.90
